Cushman, Arkansas
Current Conditions -  °F | °C
As of 9:15 AM on Monday 24 Nov 2014 (Local Time) from KBVX Reporting Station
Clear Clear  
Wind Chill: 44°   Ceiling: Unl
Heat Index: 48°   Visibility: 10mi
Dew Point: 30°   Wind: 10mph
Humidity: 50%   Direction: 270°W
Pressure: 29.84"   Gusts: NA
Location:  35.87°N, 91.75°W
Report Text: KBVX 241515Z AUTO 27009KT 10SM CLR 09/M01 A2984 RMK AO1
Loading
Personal Weather Stations






























Interactive Weather Map New forecast layout! Learn more

10-Day Weather Forecast

Advertisements
Track Severe Weather on mobile